sensor_id;sensor_type;location;lat;lon;timestamp;temperature;humidity
1103;DHT22;538;42.654;23.376;2022-12-11T00:01:31;11.20;97.10
1103;DHT22;538;42.654;23.376;2022-12-11T00:03:58;11.00;97.40
1103;DHT22;538;42.654;23.376;2022-12-11T00:06:26;11.10;97.70
1103;DHT22;538;42.654;23.376;2022-12-11T00:08:54;11.10;97.10
1103;DHT22;538;42.654;23.376;2022-12-11T00:11:22;11.20;97.40
1103;DHT22;538;42.654;23.376;2022-12-11T00:13:49;11.10;97.00
1103;DHT22;538;42.654;23.376;2022-12-11T00:18:44;11.10;97.50
1103;DHT22;538;42.654;23.376;2022-12-11T00:21:13;11.30;98.20
1103;DHT22;538;42.654;23.376;2022-12-11T00:23:41;11.20;98.70
1103;DHT22;538;42.654;23.376;2022-12-11T00:26:12;11.10;98.80
1103;DHT22;538;42.654;23.376;2022-12-11T00:28:40;11.30;98.90
1103;DHT22;538;42.654;23.376;2022-12-11T00:31:11;11.20;98.20
1103;DHT22;538;42.654;23.376;2022-12-11T00:33:39;11.40;97.80
1103;DHT22;538;42.654;23.376;2022-12-11T00:36:10;11.60;97.70
1103;DHT22;538;42.654;23.376;2022-12-11T00:38:38;11.40;98.00
1103;DHT22;538;42.654;23.376;2022-12-11T00:41:06;11.50;97.40
1103;DHT22;538;42.654;23.376;2022-12-11T00:43:34;11.20;97.50
1103;DHT22;538;42.654;23.376;2022-12-11T00:46:01;11.00;97.90
1103;DHT22;538;42.654;23.376;2022-12-11T00:48:29;11.00;98.90
1103;DHT22;538;42.654;23.376;2022-12-11T00:50:56;11.10;99.70
1103;DHT22;538;42.654;23.376;2022-12-11T00:55:50;10.90;99.90
1103;DHT22;538;42.654;23.376;2022-12-11T00:58:21;10.80;99.90
1103;DHT22;538;42.654;23.376;2022-12-11T01:00:48;11.10;99.90
1103;DHT22;538;42.654;23.376;2022-12-11T01:03:16;11.10;99.90
1103;DHT22;538;42.654;23.376;2022-12-11T01:05:50;11.20;99.90
1103;DHT22;538;42.654;23.376;2022-12-11T01:08:17;11.30;99.90
1103;DHT22;538;42.654;23.376;2022-12-11T01:10:44;11.30;98.90
1103;DHT22;538;42.654;23.376;2022-12-11T01:13:10;11.50;98.50
1103;DHT22;538;42.654;23.376;2022-12-11T01:15:41;11.50;97.50
1103;DHT22;538;42.654;23.376;2022-12-11T01:18:09;11.40;96.40
1103;DHT22;538;42.654;23.376;2022-12-11T01:20:37;11.30;96.10
1103;DHT22;538;42.654;23.376;2022-12-11T01:23:05;11.10;96.50
1103;DHT22;538;42.654;23.376;2022-12-11T01:25:34;11.20;97.50
1103;DHT22;538;42.654;23.376;2022-12-11T01:28:05;11.20;98.50
1103;DHT22;538;42.654;23.376;2022-12-11T01:30:32;11.20;98.70
1103;DHT22;538;42.654;23.376;2022-12-11T01:33:01;11.20;99.70
1103;DHT22;538;42.654;23.376;2022-12-11T01:35:29;11.20;99.90
1103;DHT22;538;42.654;23.376;2022-12-11T01:37:56;11.00;99.90
1103;DHT22;538;42.654;23.376;2022-12-11T01:40:25;11.00;99.90
1103;DHT22;538;42.654;23.376;2022-12-11T01:42:52;10.90;99.90
1103;DHT22;538;42.654;23.376;2022-12-11T01:45:32;11.00;99.90
1103;DHT22;538;42.654;23.376;2022-12-11T01:48:04;10.90;99.90
1103;DHT22;538;42.654;23.376;2022-12-11T01:50:37;11.00;99.90
1103;DHT22;538;42.654;23.376;2022-12-11T01:53:09;10.90;99.90
1103;DHT22;538;42.654;23.376;2022-12-11T01:55:39;11.10;99.90
1103;DHT22;538;42.654;23.376;2022-12-11T01:58:07;11.00;99.90
1103;DHT22;538;42.654;23.376;2022-12-11T02:00:35;11.00;99.90
1103;DHT22;538;42.654;23.376;2022-12-11T02:03:03;11.00;99.90
1103;DHT22;538;42.654;23.376;2022-12-11T02:05:31;11.10;99.90
1103;DHT22;538;42.654;23.376;2022-12-11T02:07:58;11.00;99.90
1103;DHT22;538;42.654;23.376;2022-12-11T02:10:36;11.30;99.90
1103;DHT22;538;42.654;23.376;2022-12-11T02:13:08;11.20;99.90
1103;DHT22;538;42.654;23.376;2022-12-11T02:15:45;11.10;99.90
1103;DHT22;538;42.654;23.376;2022-12-11T02:18:21;11.10;99.90
1103;DHT22;538;42.654;23.376;2022-12-11T02:20:57;11.10;99.90
1103;DHT22;538;42.654;23.376;2022-12-11T02:27:02;11.10;99.90
1103;DHT22;538;42.654;23.376;2022-12-11T02:29:38;11.30;99.90
1103;DHT22;538;42.654;23.376;2022-12-11T02:32:11;11.30;99.90
1103;DHT22;538;42.654;23.376;2022-12-11T02:34:41;11.30;99.90
1103;DHT22;538;42.654;23.376;2022-12-11T02:37:14;10.20;99.90
1103;DHT22;538;42.654;23.376;2022-12-11T02:39:43;11.40;99.90
1103;DHT22;538;42.654;23.376;2022-12-11T02:42:13;11.50;99.90
1103;DHT22;538;42.654;23.376;2022-12-11T02:44:44;11.50;99.90
1103;DHT22;538;42.654;23.376;2022-12-11T02:47:14;11.60;99.90
1103;DHT22;538;42.654;23.376;2022-12-11T02:49:44;11.70;99.90
1103;DHT22;538;42.654;23.376;2022-12-11T02:52:14;11.70;99.90
1103;DHT22;538;42.654;23.376;2022-12-11T02:54:43;11.70;99.90
1103;DHT22;538;42.654;23.376;2022-12-11T02:57:15;12.00;99.90
1103;DHT22;538;42.654;23.376;2022-12-11T02:59:45;11.80;99.90
1103;DHT22;538;42.654;23.376;2022-12-11T03:02:13;11.80;99.90
1103;DHT22;538;42.654;23.376;2022-12-11T03:04:42;12.00;99.90
1103;DHT22;538;42.654;23.376;2022-12-11T03:07:12;11.80;99.90
1103;DHT22;538;42.654;23.376;2022-12-11T03:09:43;12.10;99.90
1103;DHT22;538;42.654;23.376;2022-12-11T03:12:14;12.00;99.90
1103;DHT22;538;42.654;23.376;2022-12-11T03:14:44;12.00;99.90
1103;DHT22;538;42.654;23.376;2022-12-11T03:17:15;11.90;99.90
1103;DHT22;538;42.654;23.376;2022-12-11T03:19:49;12.00;99.90
1103;DHT22;538;42.654;23.376;2022-12-11T03:22:22;12.10;99.90
1103;DHT22;538;42.654;23.376;2022-12-11T03:24:54;12.00;99.90
1103;DHT22;538;42.654;23.376;2022-12-11T03:27:27;12.00;96.10
1103;DHT22;538;42.654;23.376;2022-12-11T03:30:03;12.10;94.50
1103;DHT22;538;42.654;23.376;2022-12-11T03:32:35;12.00;94.20
1103;DHT22;538;42.654;23.376;2022-12-11T03:35:10;12.30;94.70
1103;DHT22;538;42.654;23.376;2022-12-11T03:37:40;12.40;90.50
1103;DHT22;538;42.654;23.376;2022-12-11T03:40:11;12.40;82.60
1103;DHT22;538;42.654;23.376;2022-12-11T03:42:40;12.60;70.10
1103;DHT22;538;42.654;23.376;2022-12-11T03:45:11;12.50;69.60
1103;DHT22;538;42.654;23.376;2022-12-11T03:47:40;12.70;70.00
1103;DHT22;538;42.654;23.376;2022-12-11T03:50:11;12.80;65.60
1103;DHT22;538;42.654;23.376;2022-12-11T03:52:41;12.80;65.50
1103;DHT22;538;42.654;23.376;2022-12-11T03:55:10;12.90;59.70
1103;DHT22;538;42.654;23.376;2022-12-11T03:57:38;13.20;53.70
1103;DHT22;538;42.654;23.376;2022-12-11T04:00:07;13.80;47.50
1103;DHT22;538;42.654;23.376;2022-12-11T04:02:36;13.80;47.70
1103;DHT22;538;42.654;23.376;2022-12-11T04:05:03;14.00;46.70
1103;DHT22;538;42.654;23.376;2022-12-11T04:07:31;14.10;47.50
1103;DHT22;538;42.654;23.376;2022-12-11T04:09:58;14.10;47.50
1103;DHT22;538;42.654;23.376;2022-12-11T04:12:25;13.80;55.90
1103;DHT22;538;42.654;23.376;2022-12-11T04:14:52;13.80;56.80
1103;DHT22;538;42.654;23.376;2022-12-11T04:17:27;13.70;51.30
1103;DHT22;538;42.654;23.376;2022-12-11T04:20:13;13.90;53.20
1103;DHT22;538;42.654;23.376;2022-12-11T04:23:09;13.80;52.20
1103;DHT22;538;42.654;23.376;2022-12-11T04:26:03;13.80;52.60
1103;DHT22;538;42.654;23.376;2022-12-11T04:28:30;14.00;53.40
1103;DHT22;538;42.654;23.376;2022-12-11T04:30:57;14.00;53.70
1103;DHT22;538;42.654;23.376;2022-12-11T04:33:24;13.90;52.90
1103;DHT22;538;42.654;23.376;2022-12-11T04:35:53;13.90;53.20
1103;DHT22;538;42.654;23.376;2022-12-11T04:38:20;13.90;54.40
1103;DHT22;538;42.654;23.376;2022-12-11T04:40:47;13.90;53.30
1103;DHT22;538;42.654;23.376;2022-12-11T04:43:14;14.10;45.90
1103;DHT22;538;42.654;23.376;2022-12-11T04:45:42;14.10;46.60
1103;DHT22;538;42.654;23.376;2022-12-11T04:48:09;14.30;45.70
1103;DHT22;538;42.654;23.376;2022-12-11T04:50:36;14.20;44.90
1103;DHT22;538;42.654;23.376;2022-12-11T04:53:05;14.40;41.70
1103;DHT22;538;42.654;23.376;2022-12-11T04:55:32;14.50;42.50
1103;DHT22;538;42.654;23.376;2022-12-11T04:57:59;14.50;40.70
1103;DHT22;538;42.654;23.376;2022-12-11T05:00:25;14.60;40.40
1103;DHT22;538;42.654;23.376;2022-12-11T05:02:52;14.70;36.90
1103;DHT22;538;42.654;23.376;2022-12-11T05:05:20;14.70;36.50
1103;DHT22;538;42.654;23.376;2022-12-11T05:07:47;14.80;25.80
1103;DHT22;538;42.654;23.376;2022-12-11T05:10:15;15.10;23.40
1103;DHT22;538;42.654;23.376;2022-12-11T05:12:42;15.00;23.40
1103;DHT22;538;42.654;23.376;2022-12-11T05:15:09;15.40;21.10
1103;DHT22;538;42.654;23.376;2022-12-11T05:17:37;15.60;21.20
1103;DHT22;538;42.654;23.376;2022-12-11T05:20:05;15.70;21.30
1103;DHT22;538;42.654;23.376;2022-12-11T05:22:32;15.80;21.40
1103;DHT22;538;42.654;23.376;2022-12-11T05:24:59;15.80;21.00
1103;DHT22;538;42.654;23.376;2022-12-11T05:27:28;15.70;19.90
1103;DHT22;538;42.654;23.376;2022-12-11T05:29:55;15.80;20.50
1103;DHT22;538;42.654;23.376;2022-12-11T05:32:22;15.90;19.90
1103;DHT22;538;42.654;23.376;2022-12-11T05:34:49;15.90;19.20
1103;DHT22;538;42.654;23.376;2022-12-11T05:37:16;16.10;18.40
1103;DHT22;538;42.654;23.376;2022-12-11T05:39:43;16.20;18.80
1103;DHT22;538;42.654;23.376;2022-12-11T05:42:11;16.20;18.50
1103;DHT22;538;42.654;23.376;2022-12-11T05:44:39;16.30;17.80
1103;DHT22;538;42.654;23.376;2022-12-11T05:47:06;16.30;18.30
1103;DHT22;538;42.654;23.376;2022-12-11T05:49:33;16.30;18.50
1103;DHT22;538;42.654;23.376;2022-12-11T05:52:00;16.40;18.40
1103;DHT22;538;42.654;23.376;2022-12-11T05:54:27;16.40;18.50
1103;DHT22;538;42.654;23.376;2022-12-11T05:56:54;16.40;18.00
1103;DHT22;538;42.654;23.376;2022-12-11T05:59:21;16.30;18.00
1103;DHT22;538;42.654;23.376;2022-12-11T06:01:50;16.20;19.20
1103;DHT22;538;42.654;23.376;2022-12-11T06:04:17;16.10;20.10
1103;DHT22;538;42.654;23.376;2022-12-11T06:06:44;16.20;20.20
1103;DHT22;538;42.654;23.376;2022-12-11T06:09:13;16.20;19.70
1103;DHT22;538;42.654;23.376;2022-12-11T06:11:41;16.20;19.30
1103;DHT22;538;42.654;23.376;2022-12-11T06:14:09;16.20;19.20
1103;DHT22;538;42.654;23.376;2022-12-11T06:16:37;16.10;19.10
1103;DHT22;538;42.654;23.376;2022-12-11T06:19:05;16.20;19.60
1103;DHT22;538;42.654;23.376;2022-12-11T06:21:32;16.10;20.50
1103;DHT22;538;42.654;23.376;2022-12-11T06:24:01;16.10;19.50
1103;DHT22;538;42.654;23.376;2022-12-11T06:26:30;16.10;18.70
1103;DHT22;538;42.654;23.376;2022-12-11T06:28:57;16.00;15.20
1103;DHT22;538;42.654;23.376;2022-12-11T06:31:25;16.10;15.60
1103;DHT22;538;42.654;23.376;2022-12-11T06:33:52;16.30;18.20
1103;DHT22;538;42.654;23.376;2022-12-11T06:36:22;16.30;17.90
1103;DHT22;538;42.654;23.376;2022-12-11T06:38:50;16.30;17.30
1103;DHT22;538;42.654;23.376;2022-12-11T06:41:18;16.20;17.80
1103;DHT22;538;42.654;23.376;2022-12-11T06:43:45;16.30;17.60
1103;DHT22;538;42.654;23.376;2022-12-11T06:46:14;16.50;15.70
1103;DHT22;538;42.654;23.376;2022-12-11T06:48:44;16.50;14.10
1103;DHT22;538;42.654;23.376;2022-12-11T06:51:13;16.60;15.60
1103;DHT22;538;42.654;23.376;2022-12-11T06:53:42;16.70;16.10
1103;DHT22;538;42.654;23.376;2022-12-11T06:56:11;16.70;15.20
1103;DHT22;538;42.654;23.376;2022-12-11T06:58:39;16.70;15.30
1103;DHT22;538;42.654;23.376;2022-12-11T07:01:13;16.80;15.40
1103;DHT22;538;42.654;23.376;2022-12-11T07:03:40;17.00;15.10
1103;DHT22;538;42.654;23.376;2022-12-11T07:06:07;16.90;16.20
1103;DHT22;538;42.654;23.376;2022-12-11T07:08:35;16.80;16.50
1103;DHT22;538;42.654;23.376;2022-12-11T07:11:04;17.00;16.50
1103;DHT22;538;42.654;23.376;2022-12-11T07:13:32;17.00;16.50
1103;DHT22;538;42.654;23.376;2022-12-11T07:16:00;16.90;17.70
1103;DHT22;538;42.654;23.376;2022-12-11T07:18:29;16.90;16.60
1103;DHT22;538;42.654;23.376;2022-12-11T07:20:57;16.80;17.00
1103;DHT22;538;42.654;23.376;2022-12-11T07:23:25;16.80;18.20
1103;DHT22;538;42.654;23.376;2022-12-11T07:25:52;16.80;18.70
1103;DHT22;538;42.654;23.376;2022-12-11T07:28:21;16.80;18.20
1103;DHT22;538;42.654;23.376;2022-12-11T07:30:48;16.70;16.90
1103;DHT22;538;42.654;23.376;2022-12-11T07:33:15;16.80;17.20
1103;DHT22;538;42.654;23.376;2022-12-11T07:35:42;16.80;17.60
1103;DHT22;538;42.654;23.376;2022-12-11T07:38:09;16.80;18.10
1103;DHT22;538;42.654;23.376;2022-12-11T07:40:37;16.80;18.20
1103;DHT22;538;42.654;23.376;2022-12-11T07:43:05;16.90;18.20
1103;DHT22;538;42.654;23.376;2022-12-11T07:45:33;16.80;18.20
1103;DHT22;538;42.654;23.376;2022-12-11T07:48:00;16.90;18.20
1103;DHT22;538;42.654;23.376;2022-12-11T07:50:27;16.80;18.00
1103;DHT22;538;42.654;23.376;2022-12-11T07:52:54;16.50;16.60
1103;DHT22;538;42.654;23.376;2022-12-11T07:55:21;16.70;17.20
1103;DHT22;538;42.654;23.376;2022-12-11T07:57:48;16.70;17.10
1103;DHT22;538;42.654;23.376;2022-12-11T08:00:16;16.80;17.10
1103;DHT22;538;42.654;23.376;2022-12-11T08:02:44;16.70;16.90
1103;DHT22;538;42.654;23.376;2022-12-11T08:05:11;17.00;17.10
1103;DHT22;538;42.654;23.376;2022-12-11T08:07:38;17.00;17.30
1103;DHT22;538;42.654;23.376;2022-12-11T08:10:06;17.00;17.00
1103;DHT22;538;42.654;23.376;2022-12-11T08:12:33;16.90;16.90
1103;DHT22;538;42.654;23.376;2022-12-11T08:15:00;16.90;17.60
1103;DHT22;538;42.654;23.376;2022-12-11T08:17:27;16.20;18.00
1103;DHT22;538;42.654;23.376;2022-12-11T08:19:55;16.40;18.50
1103;DHT22;538;42.654;23.376;2022-12-11T08:22:22;16.30;19.70
1103;DHT22;538;42.654;23.376;2022-12-11T08:24:50;16.30;19.50
1103;DHT22;538;42.654;23.376;2022-12-11T08:27:17;16.60;19.60
1103;DHT22;538;42.654;23.376;2022-12-11T08:29:44;16.60;20.20
1103;DHT22;538;42.654;23.376;2022-12-11T08:34:41;16.50;18.30
1103;DHT22;538;42.654;23.376;2022-12-11T08:37:10;16.60;18.70
1103;DHT22;538;42.654;23.376;2022-12-11T08:39:38;16.70;19.00
1103;DHT22;538;42.654;23.376;2022-12-11T08:42:06;16.60;19.20
1103;DHT22;538;42.654;23.376;2022-12-11T08:44:33;16.60;18.00
1103;DHT22;538;42.654;23.376;2022-12-11T08:47:00;16.70;18.40
1103;DHT22;538;42.654;23.376;2022-12-11T08:49:27;16.50;18.50
1103;DHT22;538;42.654;23.376;2022-12-11T08:51:54;16.60;19.70
1103;DHT22;538;42.654;23.376;2022-12-11T08:54:23;15.70;21.20
1103;DHT22;538;42.654;23.376;2022-12-11T08:56:50;15.40;21.80
1103;DHT22;538;42.654;23.376;2022-12-11T08:59:18;15.60;22.30
1103;DHT22;538;42.654;23.376;2022-12-11T09:01:45;15.60;22.50
1103;DHT22;538;42.654;23.376;2022-12-11T09:04:12;15.80;23.40
1103;DHT22;538;42.654;23.376;2022-12-11T09:06:39;15.80;23.80
1103;DHT22;538;42.654;23.376;2022-12-11T09:09:06;15.80;22.50
1103;DHT22;538;42.654;23.376;2022-12-11T09:11:36;16.20;22.30
1103;DHT22;538;42.654;23.376;2022-12-11T09:14:04;16.30;21.60
1103;DHT22;538;42.654;23.376;2022-12-11T09:16:32;16.30;21.80
1103;DHT22;538;42.654;23.376;2022-12-11T09:19:02;16.70;20.80
1103;DHT22;538;42.654;23.376;2022-12-11T09:21:30;16.60;20.30
1103;DHT22;538;42.654;23.376;2022-12-11T09:23:58;16.70;20.50
1103;DHT22;538;42.654;23.376;2022-12-11T09:26:28;16.70;20.70
1103;DHT22;538;42.654;23.376;2022-12-11T09:28:56;16.70;20.90
1103;DHT22;538;42.654;23.376;2022-12-11T09:31:25;16.70;19.90
1103;DHT22;538;42.654;23.376;2022-12-11T09:33:54;16.80;18.90
1103;DHT22;538;42.654;23.376;2022-12-11T09:36:22;16.70;19.30
1103;DHT22;538;42.654;23.376;2022-12-11T09:38:50;16.70;20.30
1103;DHT22;538;42.654;23.376;2022-12-11T09:41:31;16.60;19.50
1103;DHT22;538;42.654;23.376;2022-12-11T09:44:17;16.70;19.00
1103;DHT22;538;42.654;23.376;2022-12-11T09:46:46;16.70;19.00
1103;DHT22;538;42.654;23.376;2022-12-11T09:49:21;16.60;19.30
1103;DHT22;538;42.654;23.376;2022-12-11T09:51:54;16.60;18.80
1103;DHT22;538;42.654;23.376;2022-12-11T09:54:22;16.70;18.80
1103;DHT22;538;42.654;23.376;2022-12-11T09:56:53;16.50;19.70
1103;DHT22;538;42.654;23.376;2022-12-11T09:59:30;16.30;20.40
1103;DHT22;538;42.654;23.376;2022-12-11T10:02:04;16.10;22.00
1103;DHT22;538;42.654;23.376;2022-12-11T10:04:46;15.70;23.60
1103;DHT22;538;42.654;23.376;2022-12-11T10:07:24;15.50;24.30
1103;DHT22;538;42.654;23.376;2022-12-11T10:10:00;15.40;24.20
1103;DHT22;538;42.654;23.376;2022-12-11T10:12:38;15.40;24.20
1103;DHT22;538;42.654;23.376;2022-12-11T10:15:23;15.60;23.40
1103;DHT22;538;42.654;23.376;2022-12-11T10:17:54;15.70;23.00
1103;DHT22;538;42.654;23.376;2022-12-11T10:20:24;15.90;24.00
1103;DHT22;538;42.654;23.376;2022-12-11T10:22:54;15.80;25.20
1103;DHT22;538;42.654;23.376;2022-12-11T10:25:25;15.40;27.20
1103;DHT22;538;42.654;23.376;2022-12-11T10:27:53;14.70;33.30
1103;DHT22;538;42.654;23.376;2022-12-11T10:30:23;14.50;38.30
1103;DHT22;538;42.654;23.376;2022-12-11T10:32:54;14.30;36.50
1103;DHT22;538;42.654;23.376;2022-12-11T10:35:33;14.30;38.70
1103;DHT22;538;42.654;23.376;2022-12-11T10:38:11;14.30;41.80
1103;DHT22;538;42.654;23.376;2022-12-11T10:40:42;14.20;37.20
1103;DHT22;538;42.654;23.376;2022-12-11T10:43:09;14.20;34.40
1103;DHT22;538;42.654;23.376;2022-12-11T10:45:38;14.40;33.60
1103;DHT22;538;42.654;23.376;2022-12-11T10:48:09;14.40;34.30
1103;DHT22;538;42.654;23.376;2022-12-11T10:50:53;14.50;38.00
1103;DHT22;538;42.654;23.376;2022-12-11T10:53:21;14.90;34.20
1103;DHT22;538;42.654;23.376;2022-12-11T10:55:51;15.10;30.70
1103;DHT22;538;42.654;23.376;2022-12-11T10:58:21;15.30;26.80
1103;DHT22;538;42.654;23.376;2022-12-11T11:01:01;15.40;26.90
1103;DHT22;538;42.654;23.376;2022-12-11T11:03:29;15.90;25.80
1103;DHT22;538;42.654;23.376;2022-12-11T11:06:02;16.30;24.40
1103;DHT22;538;42.654;23.376;2022-12-11T11:08:38;17.20;21.10
1103;DHT22;538;42.654;23.376;2022-12-11T11:11:05;17.20;21.60
1103;DHT22;538;42.654;23.376;2022-12-11T11:13:39;17.20;20.10
1103;DHT22;538;42.654;23.376;2022-12-11T11:16:12;17.20;19.60
1103;DHT22;538;42.654;23.376;2022-12-11T11:18:49;17.00;20.00
1103;DHT22;538;42.654;23.376;2022-12-11T11:21:19;16.80;19.60
1103;DHT22;538;42.654;23.376;2022-12-11T11:23:47;16.70;19.50
1103;DHT22;538;42.654;23.376;2022-12-11T11:26:14;16.80;19.60
1103;DHT22;538;42.654;23.376;2022-12-11T11:28:46;16.70;20.20
1103;DHT22;538;42.654;23.376;2022-12-11T11:31:16;16.60;20.90
1103;DHT22;538;42.654;23.376;2022-12-11T11:33:49;16.20;22.40
1103;DHT22;538;42.654;23.376;2022-12-11T11:36:21;15.40;28.60
1103;DHT22;538;42.654;23.376;2022-12-11T11:38:57;15.40;29.20
1103;DHT22;538;42.654;23.376;2022-12-11T11:41:33;15.20;29.90
1103;DHT22;538;42.654;23.376;2022-12-11T11:44:04;15.20;30.20
1103;DHT22;538;42.654;23.376;2022-12-11T11:46:36;15.20;30.60
1103;DHT22;538;42.654;23.376;2022-12-11T11:49:11;15.20;31.90
1103;DHT22;538;42.654;23.376;2022-12-11T11:51:45;14.80;36.90
1103;DHT22;538;42.654;23.376;2022-12-11T11:54:21;14.80;39.00
1103;DHT22;538;42.654;23.376;2022-12-11T11:56:51;14.70;39.50
1103;DHT22;538;42.654;23.376;2022-12-11T11:59:24;14.30;39.90
1103;DHT22;538;42.654;23.376;2022-12-11T12:01:56;14.60;42.30
1103;DHT22;538;42.654;23.376;2022-12-11T12:04:26;14.50;42.60
1103;DHT22;538;42.654;23.376;2022-12-11T12:07:10;14.30;36.50
1103;DHT22;538;42.654;23.376;2022-12-11T12:09:45;14.30;40.10
1103;DHT22;538;42.654;23.376;2022-12-11T12:12:23;14.10;40.90
1103;DHT22;538;42.654;23.376;2022-12-11T12:15:05;14.00;41.00
1103;DHT22;538;42.654;23.376;2022-12-11T12:17:43;14.00;42.20
1103;DHT22;538;42.654;23.376;2022-12-11T12:20:17;14.00;42.60
1103;DHT22;538;42.654;23.376;2022-12-11T12:22:55;13.90;43.50
1103;DHT22;538;42.654;23.376;2022-12-11T12:25:27;14.00;42.50
1103;DHT22;538;42.654;23.376;2022-12-11T12:27:59;14.00;42.90
1103;DHT22;538;42.654;23.376;2022-12-11T12:30:34;14.00;46.70
1103;DHT22;538;42.654;23.376;2022-12-11T12:33:19;14.00;56.10
1103;DHT22;538;42.654;23.376;2022-12-11T12:35:54;14.00;63.60
1103;DHT22;538;42.654;23.376;2022-12-11T12:38:31;14.00;63.70
1103;DHT22;538;42.654;23.376;2022-12-11T12:41:09;13.60;60.00
1103;DHT22;538;42.654;23.376;2022-12-11T12:43:59;12.60;57.50
1103;DHT22;538;42.654;23.376;2022-12-11T12:46:51;12.20;57.40
1103;DHT22;538;42.654;23.376;2022-12-11T12:49:32;11.90;60.40
1103;DHT22;538;42.654;23.376;2022-12-11T12:52:02;11.40;62.70
1103;DHT22;538;42.654;23.376;2022-12-11T12:54:32;11.20;61.40
1103;DHT22;538;42.654;23.376;2022-12-11T12:57:01;10.70;63.80
1103;DHT22;538;42.654;23.376;2022-12-11T12:59:30;10.80;68.60
1103;DHT22;538;42.654;23.376;2022-12-11T13:01:59;10.30;72.40
1103;DHT22;538;42.654;23.376;2022-12-11T13:04:38;9.90;71.40
1103;DHT22;538;42.654;23.376;2022-12-11T13:07:18;9.90;76.50
1103;DHT22;538;42.654;23.376;2022-12-11T13:10:02;9.80;78.10
1103;DHT22;538;42.654;23.376;2022-12-11T13:12:40;9.50;89.50
1103;DHT22;538;42.654;23.376;2022-12-11T13:15:30;9.10;90.40
1103;DHT22;538;42.654;23.376;2022-12-11T13:18:00;8.80;92.10
1103;DHT22;538;42.654;23.376;2022-12-11T13:20:32;8.80;92.50
1103;DHT22;538;42.654;23.376;2022-12-11T13:23:26;8.50;94.70
1103;DHT22;538;42.654;23.376;2022-12-11T13:25:56;8.20;96.10
1103;DHT22;538;42.654;23.376;2022-12-11T13:28:32;7.90;96.30
1103;DHT22;538;42.654;23.376;2022-12-11T13:31:24;7.80;97.00
1103;DHT22;538;42.654;23.376;2022-12-11T13:33:54;7.80;97.70
1103;DHT22;538;42.654;23.376;2022-12-11T13:36:27;7.60;98.60
1103;DHT22;538;42.654;23.376;2022-12-11T13:39:00;7.50;99.50
1103;DHT22;538;42.654;23.376;2022-12-11T13:41:28;7.30;99.90
1103;DHT22;538;42.654;23.376;2022-12-11T13:43:56;7.10;99.40
1103;DHT22;538;42.654;23.376;2022-12-11T13:46:28;7.10;99.70
1103;DHT22;538;42.654;23.376;2022-12-11T13:48:58;6.90;99.90
1103;DHT22;538;42.654;23.376;2022-12-11T13:51:30;6.90;99.90
1103;DHT22;538;42.654;23.376;2022-12-11T13:54:14;6.90;99.50
1103;DHT22;538;42.654;23.376;2022-12-11T13:57:02;6.60;99.30
1103;DHT22;538;42.654;23.376;2022-12-11T13:59:34;6.60;99.80
1103;DHT22;538;42.654;23.376;2022-12-11T14:02:13;6.70;99.60
1103;DHT22;538;42.654;23.376;2022-12-11T14:04:41;6.50;99.70
1103;DHT22;538;42.654;23.376;2022-12-11T14:07:10;6.40;99.40
1103;DHT22;538;42.654;23.376;2022-12-11T14:09:43;6.30;98.30
1103;DHT22;538;42.654;23.376;2022-12-11T14:12:16;6.20;98.00
1103;DHT22;538;42.654;23.376;2022-12-11T14:14:47;6.00;98.40
1103;DHT22;538;42.654;23.376;2022-12-11T14:17:21;6.10;99.20
1103;DHT22;538;42.654;23.376;2022-12-11T14:19:53;5.70;99.90
1103;DHT22;538;42.654;23.376;2022-12-11T14:22:24;5.90;99.90
1103;DHT22;538;42.654;23.376;2022-12-11T14:24:55;5.90;99.90
1103;DHT22;538;42.654;23.376;2022-12-11T14:27:23;5.80;99.90
1103;DHT22;538;42.654;23.376;2022-12-11T14:29:51;5.50;99.90
1103;DHT22;538;42.654;23.376;2022-12-11T14:32:22;5.40;99.90
1103;DHT22;538;42.654;23.376;2022-12-11T14:34:51;5.60;99.90
1103;DHT22;538;42.654;23.376;2022-12-11T14:37:21;5.70;99.90
1103;DHT22;538;42.654;23.376;2022-12-11T14:39:55;5.60;99.90
1103;DHT22;538;42.654;23.376;2022-12-11T14:42:26;5.30;99.90
1103;DHT22;538;42.654;23.376;2022-12-11T14:44:59;5.40;99.90
1103;DHT22;538;42.654;23.376;2022-12-11T14:47:29;5.30;99.90
1103;DHT22;538;42.654;23.376;2022-12-11T14:50:01;5.40;99.90
1103;DHT22;538;42.654;23.376;2022-12-11T14:52:34;5.30;99.90
1103;DHT22;538;42.654;23.376;2022-12-11T14:55:07;5.20;99.90
1103;DHT22;538;42.654;23.376;2022-12-11T14:57:36;5.20;99.90
1103;DHT22;538;42.654;23.376;2022-12-11T15:00:07;5.40;99.90
1103;DHT22;538;42.654;23.376;2022-12-11T15:02:35;6.30;99.90
1103;DHT22;538;42.654;23.376;2022-12-11T15:05:15;5.30;99.90
1103;DHT22;538;42.654;23.376;2022-12-11T15:08:02;5.00;99.90
1103;DHT22;538;42.654;23.376;2022-12-11T15:10:33;5.00;99.90
1103;DHT22;538;42.654;23.376;2022-12-11T15:13:02;5.00;99.90
1103;DHT22;538;42.654;23.376;2022-12-11T15:15:32;5.20;99.90
1103;DHT22;538;42.654;23.376;2022-12-11T15:18:01;5.10;99.90
1103;DHT22;538;42.654;23.376;2022-12-11T15:20:32;4.80;99.90
1103;DHT22;538;42.654;23.376;2022-12-11T15:23:00;4.90;99.90
1103;DHT22;538;42.654;23.376;2022-12-11T15:25:28;5.10;99.90
1103;DHT22;538;42.654;23.376;2022-12-11T15:27:58;4.90;99.90
1103;DHT22;538;42.654;23.376;2022-12-11T15:30:32;4.60;99.90
1103;DHT22;538;42.654;23.376;2022-12-11T15:33:17;4.90;99.90
1103;DHT22;538;42.654;23.376;2022-12-11T15:35:58;4.60;99.90
1103;DHT22;538;42.654;23.376;2022-12-11T15:38:32;4.70;99.90
1103;DHT22;538;42.654;23.376;2022-12-11T15:41:00;4.80;99.90
1103;DHT22;538;42.654;23.376;2022-12-11T15:43:33;4.80;99.90
1103;DHT22;538;42.654;23.376;2022-12-11T15:46:01;4.90;99.90
1103;DHT22;538;42.654;23.376;2022-12-11T15:48:28;4.50;99.90
1103;DHT22;538;42.654;23.376;2022-12-11T15:50:56;4.60;99.90
1103;DHT22;538;42.654;23.376;2022-12-11T15:53:24;4.20;99.90
1103;DHT22;538;42.654;23.376;2022-12-11T15:55:56;4.50;99.90
1103;DHT22;538;42.654;23.376;2022-12-11T15:58:24;4.40;99.90
1103;DHT22;538;42.654;23.376;2022-12-11T16:00:52;4.20;99.90
1103;DHT22;538;42.654;23.376;2022-12-11T16:03:21;4.50;99.90
1103;DHT22;538;42.654;23.376;2022-12-11T16:05:49;4.20;99.90
1103;DHT22;538;42.654;23.376;2022-12-11T16:08:21;4.30;99.90
1103;DHT22;538;42.654;23.376;2022-12-11T16:10:52;4.30;99.90
1103;DHT22;538;42.654;23.376;2022-12-11T16:13:21;4.30;99.90
1103;DHT22;538;42.654;23.376;2022-12-11T16:15:52;4.40;99.90
1103;DHT22;538;42.654;23.376;2022-12-11T16:18:21;4.10;99.90
1103;DHT22;538;42.654;23.376;2022-12-11T16:20:49;4.10;99.90
1103;DHT22;538;42.654;23.376;2022-12-11T16:23:17;4.20;99.90
1103;DHT22;538;42.654;23.376;2022-12-11T16:25:47;4.10;99.90
1103;DHT22;538;42.654;23.376;2022-12-11T16:28:17;4.00;99.90
1103;DHT22;538;42.654;23.376;2022-12-11T16:30:46;4.20;99.90
1103;DHT22;538;42.654;23.376;2022-12-11T16:33:18;4.10;99.90
1103;DHT22;538;42.654;23.376;2022-12-11T16:35:45;4.10;99.90
1103;DHT22;538;42.654;23.376;2022-12-11T16:38:12;4.10;99.90